Аэропорт: Владикавказ (Беслан). Владикавказ

ICAO: URMO

METAR:
2021-04-21 20:30:00
URMO 212030Z AUTO 29003MPS 9999 // ///032/// 11/09 Q1021 RMK QFE722/0963
METAR:
2021-04-21 14:00:00
TAF URMO 211400Z 2115/2124 02006G13MPS 9999 BKN020 TEMPO 2115/2124 07003G08MPS 6000 -SHRA BKN016 BKN020CB